createdAt,value
2022-09-01T00:00:49.302Z,86.96
2022-09-01T00:04:32.172Z,86.51
2022-09-01T00:08:18.090Z,86.79
2022-09-01T00:12:02.438Z,86.29
2022-09-01T00:15:45.417Z,86.28
2022-09-01T00:19:30.093Z,86.89
2022-09-01T00:23:12.859Z,86.95
2022-09-01T00:26:56.294Z,85.80
2022-09-01T00:30:39.500Z,86.58
2022-09-01T00:34:23.071Z,86.98
2022-09-01T00:38:07.389Z,86.80
2022-09-01T00:41:51.287Z,86.89
2022-09-01T00:45:34.042Z,87.38
2022-09-01T00:49:20.035Z,87.54
2022-09-01T00:53:02.968Z,87.27
2022-09-01T00:56:48.288Z,87.47
2022-09-01T01:00:42.560Z,87.73
2022-09-01T01:04:26.049Z,87.46
2022-09-01T01:08:12.049Z,87.71
2022-09-01T01:11:59.477Z,88.12
2022-09-01T01:15:43.926Z,88.01
2022-09-01T01:19:52.809Z,87.76
2022-09-01T01:23:40.511Z,87.99
2022-09-01T01:27:24.636Z,88.41
2022-09-01T01:31:12.666Z,88.21
2022-09-01T01:34:56.215Z,88.21
2022-09-01T01:38:39.759Z,88.14
2022-09-01T01:42:26.883Z,88.56
2022-09-01T01:46:11.477Z,88.49
2022-09-01T01:49:54.310Z,88.35
2022-09-01T01:53:37.335Z,88.12
2022-09-01T01:57:20.026Z,87.83
2022-09-01T02:01:04.282Z,87.11
2022-09-01T02:04:47.049Z,87.48
2022-09-01T02:08:29.787Z,86.67
2022-09-01T02:12:15.014Z,86.98
2022-09-01T02:16:00.614Z,87.00
2022-09-01T02:19:44.742Z,86.99
2022-09-01T02:23:27.587Z,86.53
2022-09-01T02:27:10.795Z,86.10
2022-09-01T02:30:55.064Z,86.14
2022-09-01T02:34:39.425Z,85.58
2022-09-01T02:38:26.272Z,84.56
2022-09-01T02:42:11.716Z,83.56
2022-09-01T02:45:55.598Z,83.48
2022-09-01T02:49:42.477Z,83.99
2022-09-01T02:53:26.631Z,84.39
2022-09-01T02:57:09.398Z,84.55
2022-09-01T03:00:54.110Z,85.05
2022-09-01T03:04:37.412Z,85.08
2022-09-01T03:08:20.944Z,85.57
2022-09-01T03:12:07.236Z,85.65
2022-09-01T03:15:50.240Z,85.88
2022-09-01T03:19:40.523Z,86.09
2022-09-01T03:23:25.261Z,86.54
2022-09-01T03:27:11.733Z,86.88
2022-09-01T03:30:56.885Z,87.32
2022-09-01T03:34:39.729Z,88.98
2022-09-01T03:38:24.524Z,88.58
2022-09-01T03:42:12.085Z,88.96
2022-09-01T03:45:56.316Z,88.44
2022-09-01T03:49:39.417Z,88.44
2022-09-01T03:53:25.317Z,87.80
2022-09-01T03:57:10.088Z,87.98
2022-09-01T04:00:56.466Z,87.44
2022-09-01T04:04:39.327Z,87.09
2022-09-01T04:08:25.433Z,86.89
2022-09-01T04:12:13.670Z,86.73
2022-09-01T04:15:56.467Z,86.95
2022-09-01T04:19:39.745Z,85.85
2022-09-01T04:23:27.222Z,85.32
2022-09-01T04:27:11.372Z,84.88
2022-09-01T04:30:56.864Z,84.35
2022-09-01T04:34:41.759Z,84.82
2022-09-01T04:38:25.649Z,84.88
2022-09-01T04:42:09.244Z,84.78
2022-09-01T04:45:53.788Z,85.10
2022-09-01T04:49:37.588Z,86.38
2022-09-01T04:53:20.523Z,87.80
2022-09-01T04:57:03.264Z,87.85
2022-09-01T05:00:48.235Z,86.95
2022-09-01T05:04:34.184Z,87.49
2022-09-01T05:08:23.286Z,87.74
2022-09-01T05:12:15.120Z,88.06
2022-09-01T05:16:03.653Z,86.78
2022-09-01T05:19:50.593Z,86.49
2022-09-01T05:23:33.425Z,86.01
2022-09-01T05:27:19.190Z,85.88
2022-09-01T05:31:02.162Z,84.98
2022-09-01T05:34:46.177Z,84.68
2022-09-01T05:38:31.353Z,84.45
2022-09-01T05:42:14.104Z,84.24
2022-09-01T05:46:06.688Z,83.84
2022-09-01T05:49:50.848Z,84.08
2022-09-01T05:53:35.165Z,83.18
2022-09-01T05:57:33.826Z,83.03
2022-09-01T06:01:22.158Z,82.62
2022-09-01T06:05:05.572Z,81.58
2022-09-01T06:08:49.953Z,80.17
2022-09-01T06:12:34.031Z,78.53
2022-09-01T06:16:18.047Z,74.08
2022-09-01T06:20:00.936Z,72.46
2022-09-01T06:23:43.992Z,70.57
2022-09-01T06:27:28.132Z,69.78
2022-09-01T06:31:12.161Z,71.27
2022-09-01T06:34:58.019Z,69.28
2022-09-01T06:38:41.246Z,69.15
2022-09-01T06:42:24.669Z,67.09
2022-09-01T06:46:10.587Z,65.41
2022-09-01T06:49:57.843Z,66.90
2022-09-01T06:53:41.180Z,66.97
2022-09-01T07:01:30.338Z,66.37
2022-09-01T07:09:47.177Z,67.79
2022-09-01T07:13:25.606Z,68.03
2022-09-01T07:17:26.885Z,68.44
2022-09-01T07:21:39.342Z,68.59
2022-09-01T07:29:15.727Z,66.36
2022-09-01T07:33:41.715Z,63.81
2022-09-01T07:38:47.838Z,63.47
2022-09-01T07:45:26.143Z,66.63
2022-09-01T07:53:18.338Z,67.55
2022-09-01T07:57:01.909Z,65.35
2022-09-01T08:00:46.260Z,63.92
2022-09-01T08:04:31.644Z,65.35
2022-09-01T08:08:26.238Z,65.94
2022-09-01T08:12:11.391Z,66.67
2022-09-01T08:16:17.106Z,66.28
2022-09-01T08:19:58.496Z,67.03
2022-09-01T08:23:41.592Z,66.41
2022-09-01T08:27:27.312Z,64.67
2022-09-01T08:31:11.761Z,64.22
2022-09-01T08:34:54.798Z,65.42
2022-09-01T08:38:39.331Z,65.21
2022-09-01T08:42:31.940Z,63.80
2022-09-01T08:46:21.144Z,64.47
2022-09-01T08:50:06.368Z,64.87
2022-09-01T08:53:56.292Z,65.57
2022-09-01T08:57:41.978Z,64.98
2022-09-01T09:01:32.472Z,63.63
2022-09-01T09:05:27.996Z,62.67
2022-09-01T09:09:12.407Z,62.06
2022-09-01T09:13:04.896Z,61.48
2022-09-01T09:16:51.447Z,61.25
2022-09-01T09:20:36.837Z,61.44
2022-09-01T09:24:29.188Z,61.06
2022-09-01T09:28:22.423Z,61.24
2022-09-01T09:32:22.607Z,60.54
2022-09-01T09:36:19.322Z,60.35
2022-09-01T09:40:16.004Z,60.82
2022-09-01T09:44:04.515Z,60.12
2022-09-01T09:47:47.782Z,59.00
2022-09-01T09:51:30.546Z,57.64
2022-09-01T09:55:24.204Z,59.24
2022-09-01T09:59:29.324Z,60.64
2022-09-01T10:03:36.363Z,61.53
2022-09-01T10:07:33.097Z,61.64
2022-09-01T10:11:35.340Z,60.56
2022-09-01T10:15:20.380Z,62.04
2022-09-01T10:19:03.457Z,61.18
2022-09-01T10:22:48.377Z,60.72
2022-09-01T10:26:37.445Z,59.33
2022-09-01T10:30:21.418Z,60.30
2022-09-01T10:34:06.405Z,59.36
2022-09-01T10:37:49.284Z,59.17
2022-09-01T10:42:00.050Z,59.33
2022-09-01T10:45:44.477Z,58.74
2022-09-01T10:50:07.670Z,59.61
2022-09-01T10:53:53.930Z,58.93
2022-09-01T10:59:31.062Z,58.07
2022-09-01T11:02:23.506Z,57.82
2022-09-01T11:06:13.354Z,58.19
2022-09-01T11:10:31.434Z,56.11
2022-09-01T11:14:23.912Z,55.43
2022-09-01T11:18:11.828Z,56.10
2022-09-01T11:22:07.028Z,55.47
2022-09-01T11:26:18.981Z,54.91
2022-09-01T11:29:57.211Z,54.98
2022-09-01T11:33:47.773Z,53.98
2022-09-01T11:37:30.958Z,54.24
2022-09-01T11:41:23.980Z,54.38
2022-09-01T11:45:15.487Z,54.16
2022-09-01T11:49:08.050Z,54.91
2022-09-01T11:52:55.930Z,53.08
2022-09-01T11:56:38.781Z,53.24
2022-09-01T12:00:30.683Z,52.66
2022-09-01T12:04:23.253Z,52.21
2022-09-01T12:08:15.396Z,52.12
2022-09-01T12:11:58.636Z,51.70
2022-09-01T12:16:07.078Z,51.25
2022-09-01T12:19:45.958Z,51.42
2022-09-01T12:23:33.355Z,50.14
2022-09-01T12:27:16.388Z,48.26
2022-09-01T12:31:01.661Z,47.09
2022-09-01T12:34:46.549Z,48.10
2022-09-01T12:38:31.081Z,46.22
2022-09-01T12:42:27.205Z,47.81
2022-09-01T12:46:11.402Z,47.68
2022-09-01T12:49:55.755Z,47.48
2022-09-01T12:53:38.601Z,47.69
2022-09-01T12:57:28.737Z,47.58
2022-09-01T13:01:25.915Z,47.69
2022-09-01T13:05:32.678Z,46.43
2022-09-01T13:09:18.074Z,44.88
2022-09-01T13:13:01.968Z,45.25
2022-09-01T13:16:46.479Z,43.67
2022-09-01T13:20:29.287Z,44.64
2022-09-01T13:24:12.101Z,45.82
2022-09-01T13:27:55.577Z,45.78
2022-09-01T13:32:16.057Z,44.74
2022-09-01T13:35:43.724Z,45.01
2022-09-01T13:39:26.488Z,44.23
2022-09-01T13:43:09.303Z,43.55
2022-09-01T13:46:59.609Z,42.16
2022-09-01T13:54:47.793Z,42.14
2022-09-01T13:58:30.616Z,42.85
2022-09-01T14:02:13.441Z,41.18
2022-09-01T14:05:57.603Z,40.57
2022-09-01T14:09:40.702Z,39.67
2022-09-01T14:13:24.870Z,40.99
2022-09-01T14:17:07.775Z,41.54
2022-09-01T14:20:52.706Z,40.41
2022-09-01T14:24:40.964Z,39.66
2022-09-01T14:28:24.359Z,40.80
2022-09-01T14:32:07.916Z,40.79
2022-09-01T14:35:50.933Z,39.56
2022-09-01T14:39:33.874Z,40.35
2022-09-01T14:43:20.646Z,40.09
2022-09-01T14:47:03.416Z,40.41
2022-09-01T14:50:51.049Z,40.27
2022-09-01T14:54:34.445Z,40.48
2022-09-01T14:58:18.527Z,39.83
2022-09-01T15:02:01.602Z,38.31
2022-09-01T15:05:44.350Z,36.75
2022-09-01T15:09:27.246Z,35.96
2022-09-01T15:13:14.720Z,34.43
2022-09-01T15:16:58.813Z,33.32
2022-09-01T15:20:48.752Z,33.29
2022-09-01T15:24:31.528Z,32.54
2022-09-01T15:28:14.855Z,32.08
2022-09-01T15:31:59.065Z,32.30
2022-09-01T15:35:42.039Z,31.80
2022-09-01T15:39:24.828Z,32.28
2022-09-01T15:43:21.312Z,31.81
2022-09-01T15:47:05.745Z,31.56
2022-09-01T15:50:48.567Z,31.93
2022-09-01T15:54:31.372Z,32.36
2022-09-01T15:58:16.825Z,31.55
2022-09-01T16:02:00.826Z,31.20
2022-09-01T16:05:44.988Z,32.07
2022-09-01T16:09:27.802Z,32.68
2022-09-01T16:13:13.026Z,33.25
2022-09-01T16:17:04.081Z,33.46
2022-09-01T16:20:56.428Z,33.81
2022-09-01T16:24:42.564Z,33.98
2022-09-01T16:28:28.435Z,34.43
2022-09-01T16:32:11.351Z,34.22
2022-09-01T16:36:11.578Z,34.78
2022-09-01T16:39:59.911Z,35.08
2022-09-01T16:43:49.532Z,34.69
2022-09-01T16:47:52.310Z,35.23
2022-09-01T16:51:40.465Z,36.05
2022-09-01T16:55:29.166Z,36.83
2022-09-01T16:59:22.137Z,37.27
2022-09-01T17:03:09.351Z,38.12
2022-09-01T17:07:08.437Z,38.75
2022-09-01T17:10:54.931Z,39.54
2022-09-01T17:14:42.092Z,40.39
2022-09-01T17:18:31.308Z,40.79
2022-09-01T17:22:16.181Z,42.03
2022-09-01T17:26:03.026Z,42.71
2022-09-01T17:29:48.038Z,43.22
2022-09-01T17:33:36.632Z,45.73
2022-09-01T17:37:29.118Z,45.21
2022-09-01T17:41:19.150Z,44.63
2022-09-01T17:45:13.014Z,44.53
2022-09-01T17:48:57.997Z,44.58
2022-09-01T17:52:52.586Z,44.55
2022-09-01T17:56:43.684Z,45.08
2022-09-01T18:00:28.964Z,46.37
2022-09-01T18:04:30.974Z,47.02
2022-09-01T18:08:29.423Z,47.14
2022-09-01T18:12:16.098Z,46.70
2022-09-01T18:16:00.680Z,46.60
2022-09-01T18:19:59.513Z,47.05
2022-09-01T18:23:45.020Z,47.28
2022-09-01T18:27:32.711Z,47.36
2022-09-01T18:31:27.579Z,47.76
2022-09-01T18:35:22.596Z,47.95
2022-09-01T18:39:10.525Z,48.30
2022-09-01T18:43:02.041Z,48.61
2022-09-01T18:46:49.665Z,49.13
2022-09-01T18:50:35.846Z,49.35
2022-09-01T18:54:23.639Z,49.33
2022-09-01T18:58:10.160Z,49.50
2022-09-01T19:01:55.744Z,49.84
2022-09-01T19:05:56.517Z,49.84
2022-09-01T19:09:43.647Z,50.44
2022-09-01T19:13:41.031Z,50.57
2022-09-01T19:18:02.496Z,50.87
2022-09-01T19:21:48.124Z,51.38
2022-09-01T19:25:37.530Z,51.82
2022-09-01T19:29:22.515Z,52.24
2022-09-01T19:33:06.819Z,52.69
2022-09-01T19:36:52.919Z,53.11
2022-09-01T19:40:38.934Z,53.46
2022-09-01T19:44:25.818Z,53.84
2022-09-01T19:48:15.084Z,53.99
2022-09-01T19:52:00.916Z,54.50
2022-09-01T19:55:48.860Z,54.91
2022-09-01T19:59:43.343Z,55.32
2022-09-01T20:03:28.705Z,55.56
2022-09-01T20:07:18.449Z,55.58
2022-09-01T20:11:07.595Z,55.77
2022-09-01T20:14:58.202Z,55.77
2022-09-01T20:18:47.173Z,55.92
2022-09-01T20:22:35.020Z,55.99
2022-09-01T20:26:23.323Z,56.45
2022-09-01T20:30:09.928Z,56.64
2022-09-01T20:33:59.509Z,56.87
2022-09-01T20:37:46.289Z,57.04
2022-09-01T20:41:39.391Z,57.10
2022-09-01T20:45:23.944Z,57.09
2022-09-01T20:49:06.672Z,57.47
2022-09-01T20:53:08.993Z,57.67
2022-09-01T20:56:59.586Z,57.99
2022-09-01T21:00:48.424Z,58.19
2022-09-01T21:04:38.583Z,58.89
2022-09-01T21:08:31.469Z,60.13
2022-09-01T21:12:25.768Z,60.71
2022-09-01T21:16:13.778Z,60.60
2022-09-01T21:20:04.737Z,60.38
2022-09-01T21:23:47.488Z,60.69
2022-09-01T21:27:37.001Z,61.08
2022-09-01T21:31:20.306Z,61.48
2022-09-01T21:35:03.845Z,61.42
2022-09-01T21:38:46.580Z,61.73
2022-09-01T21:42:33.311Z,62.05
2022-09-01T21:46:16.883Z,62.13
2022-09-01T21:49:59.631Z,62.83
2022-09-01T21:53:43.331Z,63.14
2022-09-01T21:57:26.056Z,63.38
2022-09-01T22:01:10.616Z,63.38
2022-09-01T22:04:57.277Z,63.70
2022-09-01T22:08:40.101Z,64.19
2022-09-01T22:12:24.646Z,64.20
2022-09-01T22:16:07.888Z,64.62
2022-09-01T22:19:54.085Z,64.95
2022-09-01T22:23:37.263Z,65.23
2022-09-01T22:27:20.068Z,65.28
2022-09-01T22:31:03.220Z,65.70
2022-09-01T22:34:45.997Z,65.46
2022-09-01T22:38:30.161Z,65.37
2022-09-01T22:42:12.890Z,65.51
2022-09-01T22:45:56.598Z,66.05
2022-09-01T22:49:39.432Z,66.32
2022-09-01T22:53:23.473Z,66.51
2022-09-01T22:57:07.657Z,66.62
2022-09-01T23:00:52.043Z,66.89
2022-09-01T23:04:35.352Z,67.26
2022-09-01T23:08:18.276Z,67.45
2022-09-01T23:12:01.020Z,67.79
2022-09-01T23:15:45.218Z,67.74
2022-09-01T23:19:27.969Z,68.14
2022-09-01T23:23:10.730Z,68.23
2022-09-01T23:26:53.474Z,68.40
2022-09-01T23:30:36.188Z,68.62
2022-09-01T23:34:20.345Z,68.83
2022-09-01T23:38:03.102Z,69.24
2022-09-01T23:41:46.032Z,69.64
2022-09-01T23:45:29.735Z,69.58
2022-09-01T23:49:20.627Z,69.69
2022-09-01T23:53:03.412Z,69.94
2022-09-01T23:56:46.402Z,70.01
